Time;durP1;ratioP1;P1;durP2;ratioP2;P2;SDS_P1;SDS_P2;PMS_P1;PMS_P2;Temp;Humidity;BMP_temperature;BMP_pressure;BME280_temperature;BME280_humidity;BME280_pressure;Samples;Min_cycle;Max_cycle;Signal;HPM_P1;HPM_P2
2023/01/14 00:01:17;;;;;;;;;;;8.30;99.90;;;;;;5008799;28;19910;-73
2023/01/14 00:03:43;;;;;;;;;;;8.20;99.90;;;;;;5005709;28;19910;-75
2023/01/14 00:06:10;;;;;;;;;;;8.20;99.90;;;;;;5009940;28;19928;-75
2023/01/14 00:08:35;;;;;;;;;;;8.20;99.90;;;;;;5003615;28;20194;-74
2023/01/14 00:11:05;;;;;;;;;;;8.20;99.90;;;;;;5008644;28;19910;-74
2023/01/14 00:13:34;;;;;;;;;;;8.10;99.90;;;;;;5007701;28;19976;-73
2023/01/14 00:16:00;;;;;;;;;;;8.10;99.90;;;;;;5005738;28;19921;-74
2023/01/14 00:18:26;;;;;;;;;;;8.00;99.90;;;;;;5014619;28;19910;-76
2023/01/14 00:21:02;;;;;;;;;;;8.00;99.90;;;;;;5016601;28;19913;-76
2023/01/14 00:23:28;;;;;;;;;;;8.00;99.90;;;;;;5011700;28;20427;-76
2023/01/14 00:25:54;;;;;;;;;;;8.00;99.90;;;;;;5008263;28;19917;-74
2023/01/14 00:28:19;;;;;;;;;;;8.00;99.90;;;;;;5025831;28;19940;-75
2023/01/14 00:30:45;;;;;;;;;;;7.90;99.90;;;;;;5040269;28;19910;-72
2023/01/14 00:33:11;;;;;;;;;;;7.90;99.90;;;;;;5028199;28;19917;-73
2023/01/14 00:35:37;;;;;;;;;;;7.90;99.90;;;;;;5008415;28;19975;-75
2023/01/14 00:38:02;;;;;;;;;;;7.90;99.90;;;;;;5013486;28;19909;-75
2023/01/14 00:40:27;;;;;;;;;;;7.80;99.90;;;;;;5003622;28;20307;-75
2023/01/14 00:42:53;;;;;;;;;;;7.90;99.90;;;;;;5000049;28;19953;-74
2023/01/14 00:45:18;;;;;;;;;;;7.90;99.90;;;;;;5006249;28;19913;-76
2023/01/14 00:47:44;;;;;;;;;;;7.90;99.90;;;;;;5002923;28;19979;-75
2023/01/14 00:50:11;;;;;;;;;;;7.80;99.90;;;;;;5015054;28;19917;-75
2023/01/14 00:52:36;;;;;;;;;;;7.80;99.90;;;;;;5010646;28;19913;-73
2023/01/14 00:55:02;;;;;;;;;;;7.80;99.90;;;;;;5016941;28;19921;-73
2023/01/14 00:57:27;;;;;;;;;;;7.70;99.90;;;;;;5010657;28;19914;-74
2023/01/14 00:59:53;;;;;;;;;;;7.70;99.90;;;;;;5017176;28;19920;-74
2023/01/14 01:02:18;;;;;;;;;;;7.60;99.90;;;;;;5008658;28;20260;-76
2023/01/14 01:04:44;;;;;;;;;;;7.60;99.90;;;;;;5016357;28;19913;-76
2023/01/14 01:07:09;;;;;;;;;;;7.60;99.90;;;;;;5007676;28;19918;-75
2023/01/14 01:09:35;;;;;;;;;;;7.50;99.90;;;;;;5009230;28;19914;-75
2023/01/14 01:12:00;;;;;;;;;;;7.50;99.90;;;;;;5009800;28;20439;-75
2023/01/14 01:14:26;;;;;;;;;;;7.60;99.90;;;;;;4993837;28;19946;-75
2023/01/14 01:16:51;;;;;;;;;;;7.50;99.90;;;;;;5013477;28;19971;-75
2023/01/14 01:19:17;;;;;;;;;;;7.50;99.90;;;;;;5013101;28;19909;-75
2023/01/14 01:21:42;;;;;;;;;;;7.40;99.90;;;;;;5010350;28;20024;-76
2023/01/14 01:24:08;;;;;;;;;;;7.30;99.90;;;;;;5006056;28;20354;-74
2023/01/14 01:26:33;;;;;;;;;;;7.30;99.90;;;;;;5012393;28;20271;-75
2023/01/14 01:28:59;;;;;;;;;;;7.20;99.90;;;;;;5005223;28;20008;-75
2023/01/14 01:31:25;;;;;;;;;;;7.20;99.90;;;;;;5004691;28;20390;-75
2023/01/14 01:33:51;;;;;;;;;;;7.20;99.90;;;;;;5005394;28;19913;-75
2023/01/14 01:36:18;;;;;;;;;;;7.20;99.90;;;;;;5007123;28;19956;-75
2023/01/14 01:38:44;;;;;;;;;;;7.20;99.90;;;;;;5010399;28;20198;-75
2023/01/14 01:41:14;;;;;;;;;;;7.20;99.90;;;;;;5021246;28;19910;-75
2023/01/14 01:43:59;;;;;;;;;;;7.10;99.90;;;;;;5017575;28;19929;-76
2023/01/14 01:46:24;;;;;;;;;;;7.10;99.90;;;;;;5013414;28;20449;-74
2023/01/14 01:48:50;;;;;;;;;;;7.10;99.90;;;;;;5027039;28;19910;-74
2023/01/14 01:51:18;;;;;;;;;;;7.10;99.90;;;;;;5012210;28;19963;-74
2023/01/14 01:53:45;;;;;;;;;;;7.00;99.90;;;;;;5010869;28;20309;-75
2023/01/14 01:56:13;;;;;;;;;;;7.00;99.90;;;;;;5000879;28;19941;-76
2023/01/14 01:58:39;;;;;;;;;;;7.00;99.90;;;;;;5005750;28;19928;-76
2023/01/14 02:01:04;;;;;;;;;;;7.10;99.90;;;;;;5002631;28;20249;-75
2023/01/14 02:03:38;;;;;;;;;;;7.00;99.90;;;;;;5002536;28;19956;-74
2023/01/14 02:06:04;;;;;;;;;;;7.00;99.90;;;;;;5002780;28;19968;-75
2023/01/14 02:08:30;;;;;;;;;;;7.00;99.90;;;;;;5005112;28;19953;-74
2023/01/14 02:11:08;;;;;;;;;;;7.00;99.90;;;;;;5008270;28;19925;-74
2023/01/14 02:13:39;;;;;;;;;;;7.00;99.90;;;;;;5004504;28;19921;-75
2023/01/14 02:16:34;;;;;;;;;;;7.00;99.90;;;;;;5003127;28;20141;-74
2023/01/14 02:19:02;;;;;;;;;;;7.00;99.90;;;;;;4977423;28;20386;-74
2023/01/14 02:21:41;;;;;;;;;;;6.90;99.90;;;;;;5008354;28;19975;-76
2023/01/14 02:24:22;;;;;;;;;;;6.90;99.90;;;;;;5002443;28;19913;-74
2023/01/14 02:26:54;;;;;;;;;;;6.90;99.90;;;;;;5006737;28;19918;-74
2023/01/14 02:29:31;;;;;;;;;;;6.90;99.90;;;;;;5010299;28;19913;-74
2023/01/14 02:32:12;;;;;;;;;;;7.00;99.90;;;;;;5022343;28;19913;-75
2023/01/14 02:34:46;;;;;;;;;;;7.00;99.90;;;;;;5003037;28;19944;-74
2023/01/14 02:37:16;;;;;;;;;;;6.90;99.90;;;;;;5004147;28;19918;-74
2023/01/14 02:39:44;;;;;;;;;;;6.90;99.90;;;;;;5006518;28;19925;-73
2023/01/14 02:45:05;;;;;;;;;;;6.80;99.90;;;;;;5010123;28;19975;-74
2023/01/14 02:47:31;;;;;;;;;;;6.80;99.90;;;;;;5012616;28;20004;-73
2023/01/14 02:49:58;;;;;;;;;;;6.90;99.90;;;;;;5011983;28;19914;-74
2023/01/14 02:52:25;;;;;;;;;;;6.80;99.90;;;;;;5010622;28;19914;-74
2023/01/14 02:54:58;;;;;;;;;;;6.80;99.90;;;;;;5003717;28;20412;-73
2023/01/14 02:57:39;;;;;;;;;;;6.80;99.90;;;;;;5010113;28;20006;-74
2023/01/14 03:00:14;;;;;;;;;;;6.80;99.90;;;;;;5001710;28;20053;-74
2023/01/14 03:03:00;;;;;;;;;;;6.90;99.90;;;;;;5013423;28;20441;-73
2023/01/14 03:05:29;;;;;;;;;;;6.90;99.90;;;;;;5011074;28;19917;-74
2023/01/14 03:08:06;;;;;;;;;;;6.90;99.90;;;;;;4995999;28;20420;-75
2023/01/14 03:11:04;;;;;;;;;;;6.90;99.90;;;;;;5003586;28;20025;-74
2023/01/14 03:13:32;;;;;;;;;;;7.00;99.90;;;;;;4979567;28;19971;-72
2023/01/14 03:16:00;;;;;;;;;;;7.00;99.90;;;;;;5003944;28;19913;-75
2023/01/14 03:18:31;;;;;;;;;;;7.00;99.90;;;;;;5019350;28;20350;-73
2023/01/14 03:21:04;;;;;;;;;;;7.00;99.90;;;;;;5006198;28;19920;-73
2023/01/14 03:23:32;;;;;;;;;;;7.00;99.90;;;;;;5016143;28;20094;-73
2023/01/14 03:25:58;;;;;;;;;;;7.10;99.90;;;;;;4996937;28;20350;-74
2023/01/14 03:28:27;;;;;;;;;;;7.10;99.90;;;;;;5004113;28;19920;-74
2023/01/14 03:30:56;;;;;;;;;;;7.00;99.90;;;;;;5015045;28;19999;-72
2023/01/14 03:33:25;;;;;;;;;;;7.10;99.90;;;;;;5010908;28;20410;-74
2023/01/14 03:35:51;;;;;;;;;;;7.10;99.90;;;;;;5006811;28;19913;-72
2023/01/14 03:38:23;;;;;;;;;;;7.10;99.90;;;;;;5001727;28;19909;-73
2023/01/14 03:40:50;;;;;;;;;;;7.10;99.90;;;;;;5003844;28;19921;-74
2023/01/14 03:43:19;;;;;;;;;;;7.10;99.90;;;;;;5003333;28;19913;-73
2023/01/14 03:45:45;;;;;;;;;;;7.10;99.90;;;;;;5009615;28;19910;-73
2023/01/14 03:48:11;;;;;;;;;;;7.10;99.90;;;;;;5008131;28;19909;-75
2023/01/14 03:50:52;;;;;;;;;;;7.00;99.90;;;;;;5000090;28;19910;-74
2023/01/14 03:53:44;;;;;;;;;;;7.10;99.90;;;;;;5013600;28;19917;-73
2023/01/14 03:56:19;;;;;;;;;;;7.10;99.90;;;;;;4994012;28;19909;-74
2023/01/14 03:58:45;;;;;;;;;;;7.10;99.90;;;;;;5011677;28;20403;-74
2023/01/14 04:01:13;;;;;;;;;;;7.10;99.90;;;;;;5009595;28;20019;-73
2023/01/14 04:03:38;;;;;;;;;;;7.10;99.90;;;;;;5008997;28;20015;-73
2023/01/14 04:06:04;;;;;;;;;;;7.10;99.90;;;;;;5008430;28;20001;-74
2023/01/14 04:08:30;;;;;;;;;;;7.10;99.90;;;;;;5004101;28;19983;-73
2023/01/14 04:10:55;;;;;;;;;;;7.10;99.90;;;;;;4997508;28;19936;-75
2023/01/14 04:16:05;;;;;;;;;;;7.10;99.90;;;;;;4998875;28;19920;-74
2023/01/14 04:18:31;;;;;;;;;;;7.10;99.90;;;;;;4997641;28;19917;-73
2023/01/14 04:20:56;;;;;;;;;;;7.10;99.90;;;;;;5000380;28;19931;-73
2023/01/14 04:23:22;;;;;;;;;;;7.10;99.90;;;;;;4993313;28;19922;-73
2023/01/14 04:25:47;;;;;;;;;;;7.10;99.90;;;;;;4994920;28;20395;-74
2023/01/14 04:28:12;;;;;;;;;;;7.20;99.90;;;;;;4999489;28;19914;-74
2023/01/14 04:30:40;;;;;;;;;;;7.20;99.90;;;;;;5000547;28;19914;-74
2023/01/14 04:33:05;;;;;;;;;;;7.20;99.90;;;;;;4992550;28;19921;-73
2023/01/14 04:35:31;;;;;;;;;;;7.20;99.90;;;;;;4992573;28;20004;-74
2023/01/14 04:37:56;;;;;;;;;;;7.20;99.90;;;;;;5000550;28;19917;-74
2023/01/14 04:40:22;;;;;;;;;;;7.20;99.90;;;;;;4997045;28;19914;-75
2023/01/14 04:42:48;;;;;;;;;;;7.10;99.90;;;;;;4989725;28;19916;-73
2023/01/14 04:45:14;;;;;;;;;;;7.10;99.90;;;;;;4998190;28;19910;-74
2023/01/14 04:47:40;;;;;;;;;;;7.10;99.90;;;;;;4998856;28;19910;-74
2023/01/14 04:52:50;;;;;;;;;;;7.10;99.90;;;;;;5010219;28;20464;-73
2023/01/14 04:55:15;;;;;;;;;;;7.10;99.90;;;;;;4998508;28;19973;-75
2023/01/14 04:57:41;;;;;;;;;;;7.10;99.90;;;;;;5020726;28;19949;-73
2023/01/14 05:00:07;;;;;;;;;;;7.10;99.90;;;;;;5000162;28;19992;-74
2023/01/14 05:02:32;;;;;;;;;;;7.00;99.90;;;;;;5006088;28;19914;-75
2023/01/14 05:05:01;;;;;;;;;;;7.00;99.90;;;;;;4996560;28;19948;-75
2023/01/14 05:07:26;;;;;;;;;;;7.00;99.90;;;;;;5000143;28;20284;-74
2023/01/14 05:09:52;;;;;;;;;;;7.00;99.90;;;;;;5000190;28;19917;-73
2023/01/14 05:12:17;;;;;;;;;;;7.00;99.90;;;;;;5002304;28;19913;-74
2023/01/14 05:14:42;;;;;;;;;;;7.00;99.90;;;;;;5013255;28;20282;-73
2023/01/14 05:17:08;;;;;;;;;;;6.90;99.90;;;;;;5009927;28;20003;-73
2023/01/14 05:19:33;;;;;;;;;;;7.00;99.90;;;;;;4998062;28;20017;-74
2023/01/14 05:22:00;;;;;;;;;;;7.00;99.90;;;;;;5001308;28;19914;-74
2023/01/14 05:24:26;;;;;;;;;;;7.00;99.90;;;;;;5006531;28;19913;-73
2023/01/14 05:26:52;;;;;;;;;;;7.00;99.90;;;;;;4996906;28;19949;-74
2023/01/14 05:29:17;;;;;;;;;;;7.00;99.90;;;;;;5013860;28;19924;-74
2023/01/14 05:31:44;;;;;;;;;;;7.00;99.90;;;;;;5000296;28;19914;-74
2023/01/14 05:34:10;;;;;;;;;;;7.00;99.90;;;;;;5003013;28;20364;-75
2023/01/14 05:36:35;;;;;;;;;;;7.00;99.90;;;;;;5005292;28;19916;-73
2023/01/14 05:39:01;;;;;;;;;;;7.10;99.90;;;;;;5001715;28;19993;-73
2023/01/14 05:41:26;;;;;;;;;;;7.00;99.90;;;;;;4998656;28;19914;-73
2023/01/14 05:46:52;;;;;;;;;;;7.10;99.90;;;;;;4945905;28;19969;-74
2023/01/14 05:49:18;;;;;;;;;;;7.10;99.90;;;;;;4983867;28;19913;-73
2023/01/14 05:51:43;;;;;;;;;;;7.10;99.90;;;;;;4997474;28;19913;-74
2023/01/14 05:54:09;;;;;;;;;;;7.20;99.90;;;;;;4999317;28;19923;-73
2023/01/14 05:56:34;;;;;;;;;;;7.10;99.90;;;;;;4991275;28;19960;-73
2023/01/14 05:59:00;;;;;;;;;;;7.10;99.90;;;;;;5007802;28;20005;-74
2023/01/14 06:06:54;;;;;;;;;;;7.20;99.90;;;;;;4999498;28;19928;-72
2023/01/14 06:09:19;;;;;;;;;;;7.20;99.90;;;;;;5001174;28;19913;-73
2023/01/14 06:11:50;;;;;;;;;;;7.20;99.90;;;;;;4998168;28;20059;-73
2023/01/14 06:14:16;;;;;;;;;;;7.20;99.90;;;;;;5007315;28;20247;-73
2023/01/14 06:16:41;;;;;;;;;;;7.20;99.90;;;;;;4995972;28;19968;-74
2023/01/14 06:19:11;;;;;;;;;;;7.20;99.90;;;;;;5000816;28;19937;-73
2023/01/14 06:21:37;;;;;;;;;;;7.20;99.90;;;;;;5005926;28;19964;-74
2023/01/14 06:24:02;;;;;;;;;;;7.20;99.90;;;;;;5011621;28;19910;-73
2023/01/14 06:26:28;;;;;;;;;;;7.20;99.90;;;;;;5003574;28;19913;-74
2023/01/14 06:28:57;;;;;;;;;;;7.20;99.90;;;;;;5004514;28;19953;-74
2023/01/14 06:31:23;;;;;;;;;;;7.20;99.90;;;;;;5010169;28;19936;-74
2023/01/14 06:33:48;;;;;;;;;;;7.20;99.90;;;;;;5008625;28;20401;-74
2023/01/14 06:36:14;;;;;;;;;;;7.10;99.90;;;;;;5013406;28;20369;-74
2023/01/14 06:38:39;;;;;;;;;;;7.10;99.90;;;;;;5006547;28;19929;-73
2023/01/14 06:41:06;;;;;;;;;;;7.10;99.90;;;;;;5006991;28;19921;-74
2023/01/14 06:43:32;;;;;;;;;;;7.10;99.90;;;;;;5010838;28;19913;-72
2023/01/14 06:45:58;;;;;;;;;;;7.20;99.90;;;;;;5009452;28;20441;-75
2023/01/14 06:48:24;;;;;;;;;;;7.20;99.90;;;;;;5003928;28;20160;-73
2023/01/14 06:50:50;;;;;;;;;;;7.20;99.90;;;;;;5000589;28;20231;-73
2023/01/14 06:53:15;;;;;;;;;;;7.20;99.90;;;;;;5003868;28;19924;-74
2023/01/14 06:55:41;;;;;;;;;;;7.20;99.90;;;;;;5008153;28;19921;-73
2023/01/14 06:58:07;;;;;;;;;;;7.20;99.90;;;;;;5005302;28;19913;-76
2023/01/14 07:00:32;;;;;;;;;;;7.20;99.90;;;;;;5006431;28;19918;-73
2023/01/14 07:02:58;;;;;;;;;;;7.20;99.90;;;;;;5005944;28;20406;-74
2023/01/14 07:05:23;;;;;;;;;;;7.20;99.90;;;;;;5002943;28;20458;-76
2023/01/14 07:07:49;;;;;;;;;;;7.20;99.90;;;;;;5013774;28;19941;-76
2023/01/14 07:10:15;;;;;;;;;;;7.20;99.90;;;;;;5000397;28;20008;-76
2023/01/14 07:12:48;;;;;;;;;;;7.20;99.90;;;;;;5010606;28;19917;-75
2023/01/14 07:15:14;;;;;;;;;;;7.20;99.90;;;;;;5007639;28;19909;-75
2023/01/14 07:17:39;;;;;;;;;;;7.20;99.90;;;;;;5011209;28;19914;-74
2023/01/14 07:20:06;;;;;;;;;;;7.30;99.90;;;;;;5019341;28;19956;-74
2023/01/14 07:22:31;;;;;;;;;;;7.40;99.90;;;;;;5017611;28;20004;-74
2023/01/14 07:24:57;;;;;;;;;;;7.40;99.90;;;;;;5017691;28;19953;-77
2023/01/14 07:27:22;;;;;;;;;;;7.50;99.90;;;;;;5014251;28;19909;-73
2023/01/14 07:29:48;;;;;;;;;;;7.40;99.90;;;;;;5009134;28;19926;-74
2023/01/14 07:32:13;;;;;;;;;;;7.50;99.90;;;;;;5007472;28;20015;-75
2023/01/14 07:34:39;;;;;;;;;;;7.50;99.90;;;;;;5002248;28;19921;-74
2023/01/14 07:37:04;;;;;;;;;;;7.60;99.90;;;;;;5007912;28;20446;-75
2023/01/14 07:39:30;;;;;;;;;;;7.70;99.90;;;;;;5002473;28;19971;-75
2023/01/14 07:41:55;;;;;;;;;;;7.80;99.90;;;;;;5003088;28;20407;-73
2023/01/14 07:44:23;;;;;;;;;;;7.80;99.90;;;;;;5008570;28;20409;-74
2023/01/14 07:46:55;;;;;;;;;;;7.90;99.90;;;;;;5006151;28;20113;-72
2023/01/14 07:49:21;;;;;;;;;;;8.00;99.90;;;;;;5007180;28;19913;-73
2023/01/14 07:51:47;;;;;;;;;;;8.00;99.90;;;;;;5005588;28;19910;-76
2023/01/14 07:54:13;;;;;;;;;;;8.10;99.90;;;;;;5005584;28;19922;-73
2023/01/14 07:56:38;;;;;;;;;;;8.30;99.90;;;;;;5008570;28;19985;-74
2023/01/14 07:59:04;;;;;;;;;;;8.50;99.90;;;;;;5013284;28;19917;-74
2023/01/14 08:01:29;;;;;;;;;;;8.60;99.90;;;;;;5011528;28;19977;-73
2023/01/14 08:03:55;;;;;;;;;;;8.60;99.90;;;;;;5012347;28;20247;-75
2023/01/14 08:06:20;;;;;;;;;;;8.70;99.90;;;;;;5021550;28;20011;-73
2023/01/14 08:08:46;;;;;;;;;;;8.90;99.90;;;;;;5021464;28;19914;-75
2023/01/14 08:11:11;;;;;;;;;;;9.20;99.90;;;;;;5006944;28;20000;-74
2023/01/14 08:13:37;;;;;;;;;;;9.10;99.90;;;;;;5005969;28;20330;-74
2023/01/14 08:16:03;;;;;;;;;;;9.30;99.90;;;;;;5005700;28;20013;-73
2023/01/14 08:18:31;;;;;;;;;;;9.50;99.90;;;;;;5004458;28;19964;-73
2023/01/14 08:20:57;;;;;;;;;;;9.70;99.90;;;;;;5011173;28;20004;-74
2023/01/14 08:23:23;;;;;;;;;;;9.70;99.90;;;;;;5002768;28;19963;-74
2023/01/14 08:25:48;;;;;;;;;;;10.10;99.90;;;;;;5010897;28;20035;-74
2023/01/14 08:28:14;;;;;;;;;;;10.20;99.90;;;;;;5004306;28;19913;-75
2023/01/14 08:30:39;;;;;;;;;;;10.20;99.90;;;;;;5012867;28;20291;-74
2023/01/14 08:33:06;;;;;;;;;;;10.50;99.90;;;;;;5005020;28;20000;-76
2023/01/14 08:35:32;;;;;;;;;;;10.70;99.90;;;;;;4996519;28;19975;-74
2023/01/14 08:37:57;;;;;;;;;;;11.00;99.90;;;;;;5001797;28;19913;-74
2023/01/14 08:40:23;;;;;;;;;;;11.00;99.90;;;;;;4995689;28;20038;-74
2023/01/14 08:42:48;;;;;;;;;;;11.40;99.90;;;;;;4995505;28;19918;-75
2023/01/14 08:45:14;;;;;;;;;;;11.50;99.90;;;;;;4999646;28;19925;-74
2023/01/14 08:47:39;;;;;;;;;;;11.70;99.90;;;;;;4996793;28;19910;-75
2023/01/14 08:50:05;;;;;;;;;;;11.80;99.90;;;;;;4997080;28;19914;-73
2023/01/14 08:52:31;;;;;;;;;;;12.00;99.90;;;;;;4991734;28;19933;-73
2023/01/14 08:54:56;;;;;;;;;;;12.30;99.90;;;;;;4997390;28;19910;-74
2023/01/14 08:57:22;;;;;;;;;;;12.20;99.90;;;;;;5000276;28;19913;-76
2023/01/14 08:59:48;;;;;;;;;;;12.40;99.90;;;;;;5009651;28;19988;-75
2023/01/14 09:02:14;;;;;;;;;;;12.60;99.90;;;;;;5018438;28;19920;-74
2023/01/14 09:04:40;;;;;;;;;;;12.70;99.90;;;;;;5015628;28;19910;-74
2023/01/14 09:18:03;;;;;;;;;;;13.20;99.90;;;;;;5000381;28;19933;-75
2023/01/14 09:20:30;;;;;;;;;;;13.30;99.90;;;;;;5002938;28;19910;-75
2023/01/14 09:22:56;;;;;;;;;;;13.40;99.90;;;;;;4997826;28;19914;-72
2023/01/14 09:25:22;;;;;;;;;;;13.50;99.90;;;;;;5004310;28;19918;-75
2023/01/14 09:27:47;;;;;;;;;;;13.60;99.90;;;;;;5005814;28;19910;-74
2023/01/14 09:30:13;;;;;;;;;;;13.50;99.90;;;;;;5001723;28;19914;-74
2023/01/14 09:32:39;;;;;;;;;;;13.60;99.90;;;;;;5001503;28;19957;-73
2023/01/14 09:35:05;;;;;;;;;;;13.80;99.90;;;;;;5006358;28;19909;-72
2023/01/14 09:37:33;;;;;;;;;;;13.70;99.90;;;;;;4995557;28;19961;-74
2023/01/14 09:39:59;;;;;;;;;;;13.90;99.90;;;;;;4997028;28;19925;-76
2023/01/14 09:42:27;;;;;;;;;;;13.80;99.90;;;;;;4992666;28;19971;-75
2023/01/14 09:44:58;;;;;;;;;;;13.90;99.90;;;;;;5004105;28;19944;-72
2023/01/14 09:47:24;;;;;;;;;;;14.10;99.90;;;;;;5006963;28;19917;-72
2023/01/14 09:49:49;;;;;;;;;;;13.90;99.90;;;;;;5017755;28;19963;-73
2023/01/14 09:52:33;;;;;;;;;;;14.10;99.90;;;;;;5003468;28;20395;-73
2023/01/14 09:55:24;;;;;;;;;;;14.10;99.90;;;;;;5006185;28;20319;-73
2023/01/14 09:57:55;;;;;;;;;;;14.30;99.90;;;;;;5002634;28;20060;-74
2023/01/14 10:00:41;;;;;;;;;;;14.30;99.90;;;;;;5002115;28;20016;-73
2023/01/14 10:03:36;;;;;;;;;;;14.30;99.90;;;;;;4997929;28;19948;-74
2023/01/14 10:06:03;;;;;;;;;;;14.30;99.90;;;;;;4989610;28;19921;-73
2023/01/14 10:08:33;;;;;;;;;;;14.20;99.90;;;;;;5000307;28;20534;-75
2023/01/14 10:10:59;;;;;;;;;;;14.40;99.90;;;;;;5001604;28;20261;-74
2023/01/14 10:13:34;;;;;;;;;;;14.40;99.90;;;;;;4998994;28;19941;-74
2023/01/14 10:16:01;;;;;;;;;;;14.60;99.90;;;;;;4991173;28;20557;-73
2023/01/14 10:18:45;;;;;;;;;;;14.50;99.90;;;;;;4993427;28;19910;-74
2023/01/14 10:21:16;;;;;;;;;;;14.70;99.90;;;;;;4998215;28;19920;-73
2023/01/14 10:23:41;;;;;;;;;;;14.70;99.90;;;;;;5006141;28;19914;-75
2023/01/14 10:26:10;;;;;;;;;;;14.50;99.90;;;;;;4997522;28;20391;-77
2023/01/14 10:28:36;;;;;;;;;;;14.60;99.90;;;;;;4999305;28;20310;-75
2023/01/14 10:31:02;;;;;;;;;;;14.80;99.90;;;;;;5004478;28;19923;-77
2023/01/14 10:33:27;;;;;;;;;;;14.70;99.90;;;;;;4992236;28;19992;-78
2023/01/14 10:35:58;;;;;;;;;;;15.00;99.90;;;;;;5003838;28;19917;-75
2023/01/14 10:38:24;;;;;;;;;;;14.90;99.90;;;;;;5012161;28;19913;-77
2023/01/14 10:40:52;;;;;;;;;;;15.00;99.90;;;;;;4999981;28;19920;-77
2023/01/14 10:43:36;;;;;;;;;;;15.10;99.90;;;;;;5000227;28;19914;-76
2023/01/14 10:46:02;;;;;;;;;;;14.90;99.90;;;;;;5007816;28;20291;-77
2023/01/14 10:48:31;;;;;;;;;;;15.10;99.90;;;;;;5007957;28;19918;-74
2023/01/14 10:51:17;;;;;;;;;;;15.10;99.90;;;;;;5004854;28;20375;-75
2023/01/14 10:53:42;;;;;;;;;;;15.20;99.90;;;;;;4997272;28;19914;-76
2023/01/14 10:56:08;;;;;;;;;;;15.30;99.90;;;;;;4991688;28;19913;-74
2023/01/14 10:58:33;;;;;;;;;;;15.60;99.90;;;;;;4994376;28;19992;-76
2023/01/14 11:01:00;;;;;;;;;;;15.70;99.90;;;;;;5004437;28;19921;-77
2023/01/14 11:03:31;;;;;;;;;;;15.60;99.90;;;;;;4998128;28;19910;-74
2023/01/14 11:06:01;;;;;;;;;;;15.80;99.90;;;;;;4999487;28;20226;-74
2023/01/14 11:08:31;;;;;;;;;;;15.70;99.90;;;;;;4994860;28;19910;-76
2023/01/14 11:10:58;;;;;;;;;;;15.80;99.90;;;;;;5009721;28;19913;-76
2023/01/14 11:13:25;;;;;;;;;;;16.00;99.90;;;;;;4996278;28;19914;-74
2023/01/14 11:15:50;;;;;;;;;;;16.10;99.90;;;;;;5004395;28;20374;-75
2023/01/14 11:18:19;;;;;;;;;;;16.00;99.90;;;;;;4999924;28;19957;-78
2023/01/14 11:21:02;;;;;;;;;;;16.20;99.90;;;;;;4997520;28;19914;-76
2023/01/14 11:23:30;;;;;;;;;;;16.00;99.90;;;;;;5000102;28;19921;-75
2023/01/14 11:25:56;;;;;;;;;;;16.30;99.90;;;;;;5003419;28;19914;-75
2023/01/14 11:28:22;;;;;;;;;;;16.10;99.90;;;;;;5002275;28;19913;-76
2023/01/14 11:30:50;;;;;;;;;;;16.00;99.90;;;;;;4998312;28;20298;-76
2023/01/14 11:33:20;;;;;;;;;;;16.10;99.90;;;;;;4996747;28;19987;-73
2023/01/14 11:35:51;;;;;;;;;;;16.20;99.90;;;;;;5003480;28;19956;-74
2023/01/14 11:38:19;;;;;;;;;;;16.20;99.90;;;;;;5007209;28;19910;-76
2023/01/14 11:43:32;;;;;;;;;;;16.00;99.90;;;;;;5019873;28;19961;-72
2023/01/14 11:46:12;;;;;;;;;;;16.20;99.90;;;;;;5003695;28;20293;-73
2023/01/14 11:48:39;;;;;;;;;;;15.90;99.90;;;;;;5011943;28;19913;-75
2023/01/14 11:51:16;;;;;;;;;;;16.00;99.90;;;;;;5005778;28;19920;-74
2023/01/14 11:53:44;;;;;;;;;;;15.80;99.90;;;;;;5004922;28;19976;-73
2023/01/14 11:56:30;;;;;;;;;;;16.00;99.90;;;;;;5007935;28;19944;-72
2023/01/14 11:58:55;;;;;;;;;;;16.00;99.90;;;;;;5009385;28;20409;-73
2023/01/14 12:01:27;;;;;;;;;;;16.00;99.90;;;;;;5014322;28;19913;-72
2023/01/14 12:03:58;;;;;;;;;;;16.00;99.90;;;;;;4998492;28;19914;-72
2023/01/14 12:06:29;;;;;;;;;;;15.90;99.90;;;;;;5009741;28;19978;-72
2023/01/14 12:09:00;;;;;;;;;;;16.00;99.90;;;;;;5001585;28;19910;-72
2023/01/14 12:11:46;;;;;;;;;;;15.90;99.90;;;;;;5013360;28;19917;-72
2023/01/14 12:17:12;;;;;;;;;;;15.90;99.90;;;;;;5020451;28;19923;-72
2023/01/14 12:19:44;;;;;;;;;;;15.80;99.90;;;;;;5017825;28;20426;-72
2023/01/14 12:22:29;;;;;;;;;;;15.80;99.90;;;;;;5014782;28;19920;-73
2023/01/14 12:24:54;;;;;;;;;;;15.80;99.90;;;;;;5021922;28;19932;-75
2023/01/14 12:27:42;;;;;;;;;;;15.90;99.90;;;;;;5021032;28;20433;-76
2023/01/14 12:30:28;;;;;;;;;;;15.90;99.90;;;;;;5018982;28;19909;-77
2023/01/14 12:33:05;;;;;;;;;;;16.00;99.90;;;;;;5012416;28;19936;-74
2023/01/14 12:35:53;;;;;;;;;;;15.90;99.90;;;;;;5027765;28;19976;-74
2023/01/14 12:46:47;;;;;;;;;;;16.20;99.90;;;;;;5004743;28;19971;-70
2023/01/14 12:49:13;;;;;;;;;;;16.10;99.90;;;;;;4998865;28;19914;-71
2023/01/14 12:51:41;;;;;;;;;;;16.20;99.90;;;;;;5000544;28;20298;-72
2023/01/14 12:54:08;;;;;;;;;;;16.20;99.90;;;;;;4997622;28;20292;-72
2023/01/14 12:56:36;;;;;;;;;;;16.10;99.90;;;;;;5004606;28;20000;-70
2023/01/14 12:59:03;;;;;;;;;;;16.10;99.90;;;;;;5015984;28;20712;-71
2023/01/14 13:01:32;;;;;;;;;;;16.20;99.90;;;;;;4999673;28;20341;-73
2023/01/14 13:04:01;;;;;;;;;;;16.30;99.90;;;;;;4997241;28;19913;-72
2023/01/14 13:06:32;;;;;;;;;;;16.40;99.90;;;;;;4997080;28;20228;-72
2023/01/14 13:08:59;;;;;;;;;;;16.30;99.90;;;;;;5001225;28;19913;-72
2023/01/14 13:11:26;;;;;;;;;;;16.50;99.90;;;;;;4994008;28;19918;-72
2023/01/14 13:13:56;;;;;;;;;;;16.50;99.90;;;;;;5000624;28;20226;-73
2023/01/14 13:16:31;;;;;;;;;;;16.70;99.90;;;;;;5002256;28;19964;-75
2023/01/14 13:18:57;;;;;;;;;;;16.70;99.90;;;;;;5002686;28;19964;-75
2023/01/14 13:21:54;;;;;;;;;;;16.70;99.90;;;;;;5004001;28;19920;-74
2023/01/14 13:24:27;;;;;;;;;;;16.90;99.90;;;;;;5002312;28;19996;-74
2023/01/14 13:26:53;;;;;;;;;;;17.00;99.90;;;;;;5000654;28;19909;-73
2023/01/14 13:29:21;;;;;;;;;;;16.90;99.90;;;;;;5007627;28;20114;-72
2023/01/14 13:31:47;;;;;;;;;;;17.10;99.90;;;;;;5015924;28;19913;-74
2023/01/14 13:34:22;;;;;;;;;;;17.10;99.90;;;;;;5011863;28;19976;-74
2023/01/14 13:36:48;;;;;;;;;;;17.00;99.90;;;;;;5011256;28;20393;-73
2023/01/14 13:39:20;;;;;;;;;;;17.10;99.90;;;;;;5022377;28;19909;-72
2023/01/14 13:41:47;;;;;;;;;;;17.20;99.90;;;;;;5018395;28;19913;-72
2023/01/14 13:44:22;;;;;;;;;;;17.10;99.90;;;;;;5017401;28;20359;-72
2023/01/14 13:46:52;;;;;;;;;;;17.20;99.90;;;;;;5017785;28;19906;-71
2023/01/14 13:49:22;;;;;;;;;;;17.20;99.90;;;;;;5010568;28;19909;-73
2023/01/14 13:51:49;;;;;;;;;;;17.30;99.90;;;;;;5020671;28;19920;-73
2023/01/14 13:54:19;;;;;;;;;;;17.50;99.90;;;;;;5027003;28;19913;-74
2023/01/14 13:56:48;;;;;;;;;;;17.40;99.90;;;;;;5012504;28;19917;-78
2023/01/14 13:59:23;;;;;;;;;;;17.30;99.90;;;;;;5002884;28;19936;-73
2023/01/14 14:01:49;;;;;;;;;;;17.30;99.90;;;;;;5006703;28;19957;-74
2023/01/14 14:04:34;;;;;;;;;;;17.50;99.90;;;;;;5009096;28;20528;-75
2023/01/14 14:06:59;;;;;;;;;;;17.40;99.90;;;;;;4999491;28;19927;-76
2023/01/14 14:09:31;;;;;;;;;;;17.40;99.90;;;;;;5014901;28;20340;-76
2023/01/14 14:12:03;;;;;;;;;;;17.50;99.90;;;;;;5007174;28;19917;-76
2023/01/14 14:14:34;;;;;;;;;;;17.50;99.90;;;;;;5011533;28;19928;-75
2023/01/14 14:17:01;;;;;;;;;;;17.50;99.90;;;;;;5005500;28;19914;-75
2023/01/14 14:19:45;;;;;;;;;;;17.60;99.90;;;;;;5009143;28;19921;-75
2023/01/14 14:22:17;;;;;;;;;;;17.60;99.90;;;;;;4998891;28;19945;-77
2023/01/14 14:24:55;;;;;;;;;;;17.50;99.90;;;;;;5001651;28;19964;-76
2023/01/14 14:27:29;;;;;;;;;;;17.70;99.90;;;;;;5010082;28;20294;-75
2023/01/14 14:30:04;;;;;;;;;;;17.60;99.90;;;;;;4998989;28;19922;-78
2023/01/14 14:32:30;;;;;;;;;;;17.70;99.90;;;;;;4994218;28;19918;-75
2023/01/14 14:35:24;;;;;;;;;;;17.60;99.90;;;;;;4993139;28;19914;-75
2023/01/14 14:37:50;;;;;;;;;;;17.80;99.90;;;;;;4985305;28;20052;-78
2023/01/14 14:40:24;;;;;;;;;;;17.80;99.90;;;;;;4994196;28;20527;-74
2023/01/14 14:42:50;;;;;;;;;;;17.80;99.90;;;;;;4993678;28;19925;-77
2023/01/14 14:45:29;;;;;;;;;;;17.70;99.90;;;;;;4999585;28;19909;-76
2023/01/14 14:47:55;;;;;;;;;;;17.80;99.90;;;;;;4998585;28;19909;-76
2023/01/14 14:50:26;;;;;;;;;;;17.80;99.90;;;;;;4996439;28;19936;-76
2023/01/14 14:52:52;;;;;;;;;;;17.90;99.90;;;;;;5002083;28;19916;-74
2023/01/14 14:55:18;;;;;;;;;;;18.00;99.90;;;;;;4994187;28;19910;-72
2023/01/14 14:57:44;;;;;;;;;;;18.00;99.90;;;;;;5001607;28;19988;-73
2023/01/14 15:00:21;;;;;;;;;;;17.90;99.90;;;;;;5005919;28;20421;-72
2023/01/14 15:02:49;;;;;;;;;;;18.30;99.90;;;;;;5000227;28;19913;-74
2023/01/14 15:05:22;;;;;;;;;;;18.40;99.90;;;;;;4991862;28;19918;-72
2023/01/14 15:07:48;;;;;;;;;;;18.30;99.90;;;;;;5024215;28;20391;-72
2023/01/14 15:10:15;;;;;;;;;;;18.40;99.90;;;;;;5004697;28;19975;-75
2023/01/14 15:12:40;;;;;;;;;;;18.40;99.90;;;;;;5010059;28;20226;-76
2023/01/14 15:15:17;;;;;;;;;;;18.50;99.90;;;;;;5007240;28;19952;-73